createdAt,value
2022-12-05T00:00:36.583Z,18.80
2022-12-05T00:03:06.105Z,18.13
2022-12-05T00:05:32.518Z,18.33
2022-12-05T00:07:58.920Z,17.60
2022-12-05T00:10:25.374Z,18.37
2022-12-05T00:12:51.829Z,19.10
2022-12-05T00:15:18.341Z,18.23
2022-12-05T00:17:44.780Z,19.60
2022-12-05T00:20:11.461Z,21.53
2022-12-05T00:22:38.453Z,16.83
2022-12-05T00:25:08.380Z,18.97
2022-12-05T00:27:34.940Z,23.40
2022-12-05T00:30:01.771Z,21.33
2022-12-05T00:32:29.643Z,23.80
2022-12-05T00:34:56.526Z,21.50
2022-12-05T00:37:23.444Z,19.77
2022-12-05T00:39:50.078Z,19.83
2022-12-05T00:42:16.630Z,21.67
2022-12-05T00:44:43.047Z,17.03
2022-12-05T00:47:09.554Z,15.87
2022-12-05T00:49:35.983Z,18.00
2022-12-05T00:52:02.404Z,15.23
2022-12-05T00:54:28.793Z,16.30
2022-12-05T00:56:58.056Z,15.00
2022-12-05T00:59:24.421Z,15.27
2022-12-05T01:01:52.036Z,16.03
2022-12-05T01:04:24.166Z,14.20
2022-12-05T01:06:53.825Z,13.83
2022-12-05T01:09:21.012Z,15.70
2022-12-05T01:11:48.536Z,15.97
2022-12-05T01:14:17.435Z,16.10
2022-12-05T01:16:46.342Z,14.30
2022-12-05T01:19:16.778Z,15.90
2022-12-05T01:21:43.520Z,17.33
2022-12-05T01:24:11.476Z,18.13
2022-12-05T01:26:39.762Z,18.00
2022-12-05T01:29:06.440Z,16.80
2022-12-05T01:31:35.960Z,16.00
2022-12-05T01:34:06.136Z,16.80
2022-12-05T01:36:32.599Z,15.40
2022-12-05T01:38:59.726Z,16.20
2022-12-05T01:41:32.186Z,16.00
2022-12-05T01:44:26.475Z,15.90
2022-12-05T01:46:53.935Z,15.03
2022-12-05T01:49:42.279Z,16.83
2022-12-05T01:52:22.750Z,15.50
2022-12-05T01:54:51.893Z,14.07
2022-12-05T01:57:18.411Z,13.70
2022-12-05T01:59:49.848Z,15.40
2022-12-05T02:02:16.498Z,14.87
2022-12-05T02:04:58.372Z,13.60
2022-12-05T02:07:25.226Z,14.20
2022-12-05T02:09:51.672Z,14.57
2022-12-05T02:12:20.124Z,15.40
2022-12-05T02:15:14.605Z,13.70
2022-12-05T02:17:50.666Z,14.37
2022-12-05T02:20:48.173Z,13.20
2022-12-05T02:23:37.635Z,13.17
2022-12-05T02:26:22.276Z,13.20
2022-12-05T02:29:09.570Z,12.53
2022-12-05T02:31:54.254Z,13.70
2022-12-05T02:34:57.694Z,13.30
2022-12-05T02:37:39.178Z,14.07
2022-12-05T02:40:20.042Z,12.40
2022-12-05T02:43:25.057Z,12.93
2022-12-05T02:45:56.778Z,13.60
2022-12-05T02:48:27.960Z,12.50
2022-12-05T02:50:58.523Z,15.00
2022-12-05T02:53:27.692Z,14.50
2022-12-05T02:55:55.095Z,15.50
2022-12-05T02:58:33.595Z,13.30
2022-12-05T03:01:00.495Z,13.47
2022-12-05T03:03:27.517Z,13.73
2022-12-05T03:06:14.241Z,13.33
2022-12-05T03:08:57.140Z,12.87
2022-12-05T03:11:23.697Z,13.43
2022-12-05T03:13:58.064Z,12.70
2022-12-05T03:16:39.368Z,12.23
2022-12-05T03:19:13.078Z,13.33
2022-12-05T03:21:47.726Z,13.13
2022-12-05T03:24:14.951Z,13.70
2022-12-05T03:26:55.075Z,13.20
2022-12-05T03:29:27.274Z,13.00
2022-12-05T03:32:22.753Z,11.47
2022-12-05T03:35:04.761Z,13.10
2022-12-05T03:37:31.294Z,12.50
2022-12-05T03:40:08.600Z,12.93
2022-12-05T03:42:40.482Z,12.10
2022-12-05T03:45:12.177Z,13.00
2022-12-05T03:47:41.582Z,12.20
2022-12-05T03:50:15.795Z,13.60
2022-12-05T03:53:18.551Z,12.83
2022-12-05T03:55:42.313Z,15.20
2022-12-05T03:58:15.110Z,15.63
2022-12-05T04:00:47.313Z,14.50
2022-12-05T04:03:23.050Z,14.27
2022-12-05T04:05:54.981Z,14.37
2022-12-05T04:08:31.521Z,13.77
2022-12-05T04:11:03.313Z,14.73
2022-12-05T04:13:40.575Z,12.90
2022-12-05T04:16:40.820Z,12.50
2022-12-05T04:19:18.260Z,13.77
2022-12-05T04:21:49.539Z,12.83
2022-12-05T04:24:39.833Z,13.13
2022-12-05T04:27:09.878Z,12.40
2022-12-05T04:29:45.740Z,13.90
2022-12-05T04:32:13.819Z,13.80
2022-12-05T04:34:46.513Z,14.07
2022-12-05T04:37:19.554Z,14.97
2022-12-05T04:39:53.969Z,17.07
2022-12-05T04:42:25.850Z,15.57
2022-12-05T04:45:01.712Z,15.87
2022-12-05T04:47:32.568Z,12.90
2022-12-05T04:50:00.692Z,14.27
2022-12-05T04:52:28.918Z,13.67
2022-12-05T04:55:02.403Z,12.10
2022-12-05T04:57:37.144Z,10.87
2022-12-05T05:00:05.023Z,11.60
2022-12-05T05:02:38.500Z,11.83
2022-12-05T05:05:13.729Z,11.47
2022-12-05T05:07:50.626Z,12.50
2022-12-05T05:10:22.718Z,14.90
2022-12-05T05:12:49.197Z,15.40
2022-12-05T05:15:15.675Z,15.40
2022-12-05T05:17:42.078Z,13.67
2022-12-05T05:20:23.977Z,15.00
2022-12-05T05:22:53.491Z,12.30
2022-12-05T05:25:20.859Z,11.07
2022-12-05T05:27:52.289Z,10.03
2022-12-05T05:30:19.952Z,12.20
2022-12-05T05:32:46.907Z,12.90
2022-12-05T05:35:14.517Z,11.23
2022-12-05T05:37:41.009Z,10.20
2022-12-05T05:40:11.216Z,10.40
2022-12-05T05:42:42.502Z,11.17
2022-12-05T05:45:09.931Z,11.07
2022-12-05T05:47:36.470Z,9.10
2022-12-05T05:50:03.751Z,9.43
2022-12-05T05:52:32.847Z,8.53
2022-12-05T05:54:59.243Z,9.70
2022-12-05T05:57:25.619Z,9.90
2022-12-05T05:59:52.337Z,9.73
2022-12-05T06:02:18.903Z,9.70
2022-12-05T06:04:45.405Z,10.30
2022-12-05T06:07:11.825Z,10.13
2022-12-05T06:09:38.388Z,10.70
2022-12-05T06:12:05.140Z,10.53
2022-12-05T06:14:31.609Z,9.70
2022-12-05T06:16:58.078Z,9.13
2022-12-05T06:19:24.720Z,10.00
2022-12-05T06:21:51.478Z,9.80
2022-12-05T06:24:18.003Z,10.00
2022-12-05T06:26:44.435Z,9.10
2022-12-05T06:29:11.586Z,9.90
2022-12-05T06:31:38.317Z,10.10
2022-12-05T06:34:04.872Z,10.40
2022-12-05T06:36:31.643Z,10.47
2022-12-05T06:38:58.550Z,9.83
2022-12-05T06:41:27.639Z,10.57
2022-12-05T06:44:01.380Z,9.77
2022-12-05T06:46:28.617Z,10.20
2022-12-05T06:48:57.410Z,9.57
2022-12-05T06:51:24.666Z,10.10
2022-12-05T06:53:51.595Z,10.63
2022-12-05T06:56:19.820Z,10.30
2022-12-05T06:58:48.295Z,11.70
2022-12-05T07:01:37.622Z,9.53
2022-12-05T07:04:06.236Z,9.47
2022-12-05T07:06:33.900Z,10.13
2022-12-05T07:09:00.300Z,9.30
2022-12-05T07:11:27.036Z,9.70
2022-12-05T07:13:53.572Z,10.50
2022-12-05T07:16:20.085Z,11.30
2022-12-05T07:18:46.623Z,12.80
2022-12-05T07:21:15.029Z,10.93
2022-12-05T07:23:45.737Z,12.93
2022-12-05T07:26:15.373Z,10.20
2022-12-05T07:28:42.259Z,11.30
2022-12-05T07:31:12.335Z,10.03
2022-12-05T07:33:39.026Z,10.10
2022-12-05T07:36:10.130Z,9.67
2022-12-05T07:38:37.100Z,8.87
2022-12-05T07:41:13.113Z,7.97
2022-12-05T07:43:40.748Z,9.50
2022-12-05T07:46:08.327Z,8.00
2022-12-05T07:48:34.783Z,7.97
2022-12-05T07:51:03.591Z,8.60
2022-12-05T07:53:32.058Z,6.60
2022-12-05T07:56:00.512Z,7.77
2022-12-05T07:58:29.366Z,6.20
2022-12-05T08:00:56.315Z,7.60
2022-12-05T08:03:22.857Z,7.53
2022-12-05T08:05:49.359Z,7.97
2022-12-05T08:08:15.904Z,9.03
2022-12-05T08:10:42.345Z,9.40
2022-12-05T08:13:08.767Z,7.27
2022-12-05T08:15:36.594Z,6.50
2022-12-05T08:18:03.800Z,6.67
2022-12-05T08:20:30.605Z,7.30
2022-12-05T08:22:57.204Z,5.97
2022-12-05T08:25:23.814Z,6.97
2022-12-05T08:27:50.335Z,6.70
2022-12-05T08:30:17.146Z,6.83
2022-12-05T08:32:43.713Z,7.10
2022-12-05T08:35:10.251Z,7.40
2022-12-05T08:37:36.657Z,8.07
2022-12-05T08:40:03.917Z,8.90
2022-12-05T08:42:30.408Z,9.03
2022-12-05T08:44:57.129Z,9.03
2022-12-05T08:47:23.731Z,8.80
2022-12-05T08:49:50.093Z,6.43
2022-12-05T08:52:16.495Z,6.60
2022-12-05T08:54:42.882Z,7.07
2022-12-05T08:57:09.261Z,6.70
2022-12-05T08:59:35.659Z,6.30
2022-12-05T09:02:02.122Z,6.57
2022-12-05T09:04:28.852Z,7.00
2022-12-05T09:06:55.285Z,10.43
2022-12-05T09:09:21.667Z,7.60
2022-12-05T09:11:50.728Z,12.40
2022-12-05T09:14:17.504Z,10.43
2022-12-05T09:16:45.825Z,11.80
2022-12-05T09:19:18.546Z,9.73
2022-12-05T09:21:44.995Z,10.07
2022-12-05T09:24:13.231Z,7.77
2022-12-05T09:26:40.530Z,8.33
2022-12-05T09:29:09.991Z,7.60
2022-12-05T09:31:42.988Z,7.83
2022-12-05T09:34:09.805Z,8.20
2022-12-05T09:36:36.244Z,7.60
2022-12-05T09:39:05.868Z,8.50
2022-12-05T09:42:05.400Z,9.30
2022-12-05T09:44:47.123Z,9.50
2022-12-05T09:47:25.917Z,9.33
2022-12-05T09:49:57.939Z,8.83
2022-12-05T09:52:26.710Z,8.17
2022-12-05T09:54:53.763Z,9.40
2022-12-05T09:57:33.726Z,11.67
2022-12-05T10:00:03.669Z,9.70
2022-12-05T10:02:44.093Z,10.03
2022-12-05T10:05:21.457Z,11.43
2022-12-05T10:08:19.658Z,12.83
2022-12-05T10:11:14.054Z,11.77
2022-12-05T10:14:01.877Z,13.40
2022-12-05T10:16:51.585Z,10.70
2022-12-05T10:19:28.801Z,10.70
2022-12-05T10:22:13.707Z,10.60
2022-12-05T10:24:49.363Z,12.20
2022-12-05T10:27:24.362Z,11.67
2022-12-05T10:30:01.499Z,11.57
2022-12-05T10:32:57.753Z,10.00
2022-12-05T10:35:27.393Z,9.43
2022-12-05T10:37:59.091Z,10.73
2022-12-05T10:40:35.727Z,10.03
2022-12-05T10:43:03.664Z,11.53
2022-12-05T10:45:30.124Z,12.00
2022-12-05T10:47:58.090Z,11.77
2022-12-05T10:50:35.906Z,12.83
2022-12-05T10:53:04.147Z,10.20
2022-12-05T10:55:50.581Z,10.63
2022-12-05T10:58:30.388Z,11.50
2022-12-05T11:00:59.114Z,10.27
2022-12-05T11:03:35.575Z,10.30
2022-12-05T11:06:15.051Z,11.00
2022-12-05T11:09:03.794Z,11.83
2022-12-05T11:11:30.376Z,11.60
2022-12-05T11:14:21.400Z,12.63
2022-12-05T11:16:53.374Z,11.93
2022-12-05T11:19:22.460Z,11.53
2022-12-05T11:21:49.983Z,11.43
2022-12-05T11:24:27.510Z,12.10
2022-12-05T11:26:54.501Z,12.40
2022-12-05T11:29:39.651Z,11.50
2022-12-05T11:32:18.417Z,11.97
2022-12-05T11:34:51.320Z,10.40
2022-12-05T11:37:26.853Z,10.40
2022-12-05T11:39:53.310Z,10.83
2022-12-05T11:42:45.863Z,11.17
2022-12-05T11:45:40.039Z,10.00
2022-12-05T11:48:33.735Z,9.23
2022-12-05T11:51:34.341Z,9.27
2022-12-05T11:54:41.668Z,12.07
2022-12-05T11:57:34.187Z,12.80
2022-12-05T12:00:22.757Z,14.23
2022-12-05T12:03:01.580Z,13.70
2022-12-05T12:05:55.064Z,14.73
2022-12-05T12:08:46.135Z,15.43
2022-12-05T12:11:26.178Z,15.43
2022-12-05T12:13:52.634Z,17.30
2022-12-05T12:16:19.115Z,16.60
2022-12-05T12:19:23.040Z,16.40
2022-12-05T12:21:55.281Z,18.60
2022-12-05T12:24:21.679Z,21.20
2022-12-05T12:27:16.823Z,17.70
2022-12-05T12:30:15.076Z,17.40
2022-12-05T12:33:11.191Z,17.67
2022-12-05T12:36:12.773Z,14.70
2022-12-05T12:38:52.291Z,16.97
2022-12-05T12:41:32.857Z,15.60
2022-12-05T12:44:20.564Z,14.63
2022-12-05T12:46:53.803Z,13.73
2022-12-05T12:49:35.521Z,14.03
2022-12-05T12:52:05.393Z,15.77
2022-12-05T12:55:05.735Z,15.80
2022-12-05T12:57:46.743Z,14.73
2022-12-05T13:00:39.815Z,16.37
2022-12-05T13:03:27.315Z,17.67
2022-12-05T13:05:59.003Z,14.87
2022-12-05T13:08:52.860Z,14.13
2022-12-05T13:11:21.217Z,12.17
2022-12-05T13:13:53.094Z,14.23
2022-12-05T13:16:25.491Z,15.10
2022-12-05T13:18:52.790Z,16.10
2022-12-05T13:21:20.321Z,17.93
2022-12-05T13:23:49.981Z,16.60
2022-12-05T13:26:17.741Z,18.70
2022-12-05T13:28:47.143Z,20.10
2022-12-05T13:31:16.809Z,18.30
2022-12-05T13:33:49.272Z,18.43
2022-12-05T13:36:37.494Z,17.20
2022-12-05T13:39:26.331Z,16.70
2022-12-05T13:42:15.280Z,16.00
2022-12-05T13:44:48.684Z,16.90
2022-12-05T13:47:32.221Z,16.30
2022-12-05T13:50:04.678Z,14.50
2022-12-05T13:52:38.508Z,13.30
2022-12-05T13:55:22.307Z,13.43
2022-12-05T13:57:51.716Z,14.20
2022-12-05T14:00:18.080Z,14.27
2022-12-05T14:02:47.408Z,15.60
2022-12-05T14:05:13.799Z,14.50
2022-12-05T14:07:48.160Z,15.63
2022-12-05T14:10:20.177Z,15.83
2022-12-05T14:12:51.214Z,15.63
2022-12-05T14:15:32.512Z,14.30
2022-12-05T14:18:13.142Z,13.37
2022-12-05T14:20:53.685Z,15.00
2022-12-05T14:23:44.171Z,14.40
2022-12-05T14:26:48.194Z,13.87
2022-12-05T14:29:25.948Z,14.03
2022-12-05T14:32:04.685Z,14.53
2022-12-05T14:34:34.107Z,15.67
2022-12-05T14:37:08.061Z,17.40
2022-12-05T14:39:39.373Z,14.97
2022-12-05T14:42:21.371Z,14.67
2022-12-05T14:44:49.731Z,14.47
2022-12-05T14:47:26.852Z,13.77
2022-12-05T14:50:23.392Z,13.50
2022-12-05T14:53:15.003Z,14.67
2022-12-05T14:55:44.367Z,16.10
2022-12-05T14:58:31.402Z,16.60
2022-12-05T15:01:01.989Z,17.27
2022-12-05T15:03:35.593Z,18.90
2022-12-05T15:06:05.855Z,18.77
2022-12-05T15:08:42.259Z,18.17
2022-12-05T15:11:28.163Z,17.63
2022-12-05T15:14:10.231Z,17.03
2022-12-05T15:16:41.121Z,17.83
2022-12-05T15:19:15.839Z,19.77
2022-12-05T15:21:50.935Z,21.90
2022-12-05T15:24:19.726Z,22.47
2022-12-05T15:26:56.913Z,22.20
2022-12-05T15:29:26.961Z,19.10
2022-12-05T15:32:00.098Z,17.70
2022-12-05T15:34:35.403Z,14.97
2022-12-05T15:37:13.704Z,17.03
2022-12-05T15:40:03.830Z,19.00
2022-12-05T15:42:35.681Z,19.90
2022-12-05T15:45:14.514Z,19.77
2022-12-05T15:47:41.774Z,17.30
2022-12-05T15:50:35.487Z,16.37
2022-12-05T15:53:37.574Z,15.03
2022-12-05T15:56:18.601Z,16.60
2022-12-05T15:59:02.510Z,17.90
2022-12-05T16:01:29.794Z,19.47
2022-12-05T16:04:00.130Z,20.77
2022-12-05T16:06:38.713Z,17.27
2022-12-05T16:09:11.607Z,15.00
2022-12-05T16:11:38.653Z,14.50
2022-12-05T16:14:07.845Z,13.40
2022-12-05T16:16:37.242Z,15.37
2022-12-05T16:19:07.067Z,14.67
2022-12-05T16:21:40.880Z,18.97
2022-12-05T16:24:18.045Z,19.90
2022-12-05T16:26:57.979Z,21.40
2022-12-05T16:29:30.485Z,20.30
2022-12-05T16:31:59.691Z,18.70
2022-12-05T16:34:28.231Z,16.93
2022-12-05T16:36:56.915Z,17.90
2022-12-05T16:39:25.089Z,16.87
2022-12-05T16:41:52.285Z,16.40
2022-12-05T16:44:28.139Z,16.93
2022-12-05T16:46:56.406Z,17.97
2022-12-05T16:49:31.536Z,18.03
2022-12-05T16:52:08.533Z,22.90
2022-12-05T16:54:35.404Z,20.03
2022-12-05T16:57:02.872Z,18.80
2022-12-05T16:59:37.661Z,17.70
2022-12-05T17:02:07.399Z,14.60
2022-12-05T17:04:34.004Z,18.47
2022-12-05T17:07:00.424Z,20.23
2022-12-05T17:09:27.082Z,21.67
2022-12-05T17:12:11.028Z,22.10
2022-12-05T17:14:37.432Z,21.70
2022-12-05T17:17:05.874Z,23.03
2022-12-05T17:19:33.181Z,25.07
2022-12-05T17:22:00.055Z,27.00
2022-12-05T17:24:28.376Z,28.20
2022-12-05T17:26:54.828Z,25.57
2022-12-05T17:29:21.265Z,22.93
2022-12-05T17:31:47.819Z,21.37
2022-12-05T17:34:16.519Z,20.57
2022-12-05T17:36:44.055Z,19.80
2022-12-05T17:39:10.978Z,17.67
2022-12-05T17:41:37.427Z,18.03
2022-12-05T17:44:07.369Z,17.70
2022-12-05T17:46:33.788Z,16.10
2022-12-05T17:49:00.255Z,15.13
2022-12-05T17:51:26.878Z,15.53
2022-12-05T17:53:54.205Z,14.43
2022-12-05T17:56:20.891Z,14.77
2022-12-05T17:58:47.850Z,14.27
2022-12-05T18:01:16.799Z,14.07
2022-12-05T18:03:43.858Z,15.90
2022-12-05T18:06:10.485Z,16.00
2022-12-05T18:08:39.806Z,17.17
2022-12-05T18:11:07.052Z,17.87
2022-12-05T18:13:34.315Z,20.53
2022-12-05T18:16:01.838Z,22.77
2022-12-05T18:18:29.370Z,19.40
2022-12-05T18:21:10.412Z,21.60
2022-12-05T18:23:37.753Z,19.00
2022-12-05T18:26:05.443Z,19.60
2022-12-05T18:28:35.124Z,20.10
2022-12-05T18:31:08.437Z,18.50
2022-12-05T18:33:35.059Z,19.70
2022-12-05T18:36:09.399Z,18.37
2022-12-05T18:38:36.943Z,17.30
2022-12-05T18:41:05.110Z,16.93
2022-12-05T18:43:32.669Z,16.03
2022-12-05T18:46:01.122Z,15.20
2022-12-05T18:48:39.450Z,13.80
2022-12-05T18:51:13.582Z,13.90
2022-12-05T18:53:41.443Z,13.00
2022-12-05T18:56:22.253Z,11.47
2022-12-05T18:59:02.530Z,13.87
2022-12-05T19:01:30.764Z,14.33
2022-12-05T19:03:59.474Z,16.80
2022-12-05T19:06:29.695Z,17.40
2022-12-05T19:08:58.151Z,17.57
2022-12-05T19:11:26.340Z,21.50
2022-12-05T19:14:03.419Z,21.03
2022-12-05T19:16:33.307Z,19.70
2022-12-05T19:19:02.109Z,19.37
2022-12-05T19:21:30.514Z,17.50
2022-12-05T19:23:57.636Z,18.50
2022-12-05T19:26:25.430Z,16.87
2022-12-05T19:28:51.905Z,16.77
2022-12-05T19:31:20.859Z,14.67
2022-12-05T19:33:49.486Z,14.87
2022-12-05T19:36:23.743Z,15.87
2022-12-05T19:38:52.449Z,18.77
2022-12-05T19:41:21.737Z,20.97
2022-12-05T19:43:48.285Z,21.90
2022-12-05T19:46:20.313Z,20.47
2022-12-05T19:48:47.801Z,19.80
2022-12-05T19:51:14.758Z,20.80
2022-12-05T19:53:42.919Z,20.27
2022-12-05T19:56:21.337Z,21.90
2022-12-05T19:58:48.907Z,19.80
2022-12-05T20:01:24.920Z,20.37
2022-12-05T20:03:55.706Z,19.90
2022-12-05T20:06:23.556Z,19.83
2022-12-05T20:08:52.483Z,17.40
2022-12-05T20:11:24.957Z,17.03
2022-12-05T20:13:53.603Z,17.70
2022-12-05T20:16:22.528Z,18.53
2022-12-05T20:18:50.159Z,19.40
2022-12-05T20:21:19.677Z,18.23
2022-12-05T20:23:46.405Z,19.43
2022-12-05T20:26:16.323Z,16.60
2022-12-05T20:28:43.476Z,17.37
2022-12-05T20:31:11.481Z,16.77
2022-12-05T20:33:38.828Z,16.17
2022-12-05T20:36:28.154Z,16.47
2022-12-05T20:39:00.081Z,15.10
2022-12-05T20:41:27.390Z,14.80
2022-12-05T20:43:55.955Z,14.47
2022-12-05T20:46:23.782Z,12.90
2022-12-05T20:48:51.294Z,13.70
2022-12-05T20:51:20.919Z,14.63
2022-12-05T20:53:47.358Z,13.30
2022-12-05T20:56:26.268Z,13.50
2022-12-05T20:58:55.829Z,13.63
2022-12-05T21:01:23.544Z,13.63
2022-12-05T21:03:52.001Z,14.10
2022-12-05T21:06:23.164Z,15.20
2022-12-05T21:08:50.561Z,17.10
2022-12-05T21:11:17.117Z,16.10
2022-12-05T21:13:43.592Z,15.60
2022-12-05T21:16:13.641Z,16.87
2022-12-05T21:18:40.852Z,15.23
2022-12-05T21:21:13.268Z,16.20
2022-12-05T21:23:40.056Z,17.30
2022-12-05T21:26:11.577Z,15.60
2022-12-05T21:28:38.311Z,16.57
2022-12-05T21:31:13.850Z,15.67
2022-12-05T21:33:42.250Z,17.13
2022-12-05T21:36:09.479Z,15.53
2022-12-05T21:38:36.001Z,16.00
2022-12-05T21:41:06.344Z,15.33
2022-12-05T21:43:36.791Z,16.83
2022-12-05T21:46:04.693Z,16.30
2022-12-05T21:48:31.921Z,14.47
2022-12-05T21:50:58.442Z,15.40
2022-12-05T21:53:24.985Z,18.03
2022-12-05T21:56:05.477Z,16.70
2022-12-05T21:58:31.951Z,14.93
2022-12-05T22:00:58.365Z,15.97
2022-12-05T22:03:24.749Z,14.43
2022-12-05T22:05:59.119Z,16.17
2022-12-05T22:08:25.665Z,15.33
2022-12-05T22:10:52.117Z,17.63
2022-12-05T22:13:18.548Z,17.70
2022-12-05T22:15:44.968Z,17.27
2022-12-05T22:18:12.136Z,17.33
2022-12-05T22:20:38.558Z,16.73
2022-12-05T22:23:04.994Z,14.40
2022-12-05T22:25:31.360Z,14.83
2022-12-05T22:27:57.776Z,13.60
2022-12-05T22:30:24.206Z,15.20
2022-12-05T22:32:53.707Z,15.83
2022-12-05T22:35:20.111Z,15.20
2022-12-05T22:37:46.522Z,15.30
2022-12-05T22:40:12.988Z,14.13
2022-12-05T22:42:39.442Z,13.93
2022-12-05T22:45:06.956Z,17.17
2022-12-05T22:47:33.336Z,17.57
2022-12-05T22:49:59.856Z,19.10
2022-12-05T22:52:26.422Z,17.30
2022-12-05T22:54:52.843Z,16.43
2022-12-05T22:57:19.202Z,15.70
2022-12-05T22:59:45.624Z,15.90
2022-12-05T23:02:14.875Z,15.60
2022-12-05T23:04:41.589Z,13.37
2022-12-05T23:07:08.027Z,15.43
2022-12-05T23:09:34.441Z,14.33
2022-12-05T23:12:00.866Z,16.17
2022-12-05T23:14:27.293Z,16.03
2022-12-05T23:16:54.105Z,15.50
2022-12-05T23:19:20.643Z,15.10
2022-12-05T23:21:47.078Z,14.17
2022-12-05T23:24:13.554Z,14.40
2022-12-05T23:26:43.068Z,15.00
2022-12-05T23:29:12.278Z,14.07
2022-12-05T23:31:40.017Z,12.67
2022-12-05T23:34:06.999Z,12.60
2022-12-05T23:36:34.718Z,12.57
2022-12-05T23:39:01.941Z,12.07
2022-12-05T23:41:28.587Z,11.80
2022-12-05T23:43:55.457Z,14.00
2022-12-05T23:46:24.702Z,13.40
2022-12-05T23:48:51.732Z,14.60
2022-12-05T23:51:21.254Z,14.03
2022-12-05T23:53:51.606Z,14.63
2022-12-05T23:56:20.405Z,13.67
2022-12-05T23:58:47.151Z,13.27
